Time;durP1;ratioP1;P1;durP2;ratioP2;P2;SDS_P1;SDS_P2;PMS_P1;PMS_P2;Temp;Humidity;BMP_temperature;BMP_pressure;BME280_temperature;BME280_humidity;BME280_pressure;Samples;Min_cycle;Max_cycle;Signal;HPM_P1;HPM_P2
2023/05/12 00:01:19;;;;;;;16.40;6.13;;;;;;;43.35;34.06;100968.53;5031198;28;20259;-83
2023/05/12 00:03:45;;;;;;;18.80;4.77;;;;;;;43.23;34.08;100963.06;5031419;28;20459;-83
2023/05/12 00:06:11;;;;;;;11.27;3.80;;;;;;;43.30;34.34;100968.75;5031398;28;20416;-83
2023/05/12 00:08:37;;;;;;;13.70;5.80;;;;;;;43.26;34.02;100961.56;5031628;28;20446;-83
2023/05/12 00:11:03;;;;;;;14.00;4.60;;;;;;;43.21;33.69;100948.94;5029728;28;20427;-83
2023/05/12 00:13:29;;;;;;;10.10;4.70;;;;;;;43.24;33.98;100945.53;5031588;28;20464;-82
2023/05/12 00:15:57;;;;;;;11.40;4.47;;;;;;;43.29;34.25;100960.91;5029643;28;20468;-83
2023/05/12 00:18:24;;;;;;;17.60;5.50;;;;;;;43.28;34.58;100959.28;5031315;28;20435;-83
2023/05/12 00:20:52;;;;;;;17.57;4.30;;;;;;;43.30;33.93;100946.09;5031030;28;20462;-82
2023/05/12 00:23:18;;;;;;;15.03;4.53;;;;;;;43.24;34.25;100937.34;5031507;28;21030;-83
2023/05/12 00:25:44;;;;;;;12.43;4.60;;;;;;;43.26;34.03;100937.78;5031050;28;20459;-83
2023/05/12 00:28:10;;;;;;;10.53;4.13;;;;;;;43.22;34.24;100933.34;5030133;28;20188;-83
2023/05/12 00:30:37;;;;;;;15.47;5.47;;;;;;;43.28;34.11;100931.97;5030501;28;20219;-83
2023/05/12 00:33:04;;;;;;;15.40;4.53;;;;;;;43.32;33.69;100924.69;5031351;28;20189;-83
2023/05/12 00:35:29;;;;;;;18.30;4.53;;;;;;;43.30;34.02;100927.78;5032450;28;20473;-83
2023/05/12 00:37:55;;;;;;;14.30;5.30;;;;;;;43.26;34.51;100915.94;5031236;28;20427;-83
2023/05/12 00:40:21;;;;;;;21.50;6.63;;;;;;;43.23;34.87;100902.19;5030774;28;20467;-83
2023/05/12 00:42:48;;;;;;;17.33;6.20;;;;;;;43.29;34.73;100903.56;5032641;28;20434;-83
2023/05/12 00:45:14;;;;;;;15.10;5.27;;;;;;;43.12;34.48;100891.72;5032422;28;20423;-83
2023/05/12 00:47:41;;;;;;;14.77;4.73;;;;;;;43.23;34.53;100891.28;5031088;28;20505;-83
2023/05/12 00:50:08;;;;;;;17.73;4.43;;;;;;;43.28;34.32;100904.66;5030230;28;20420;-83
2023/05/12 00:52:34;;;;;;;13.10;4.00;;;;;;;43.23;34.52;100905.72;5030858;28;21107;-82
2023/05/12 00:55:01;;;;;;;19.60;6.50;;;;;;;43.18;34.37;100900.50;5030319;28;20435;-82
2023/05/12 00:57:27;;;;;;;13.00;4.73;;;;;;;43.16;34.66;100897.31;5032244;28;20927;-83
2023/05/12 00:59:54;;;;;;;13.07;4.80;;;;;;;43.18;34.54;100903.22;5030660;28;20439;-82
2023/05/12 01:02:21;;;;;;;12.93;3.57;;;;;;;43.19;34.35;100911.06;5031071;28;20180;-82
2023/05/12 01:04:48;;;;;;;13.20;4.20;;;;;;;43.17;33.94;100899.69;5030062;28;20541;-83
2023/05/12 01:07:21;;;;;;;15.23;4.67;;;;;;;43.17;34.36;100910.63;5032559;28;20939;-82
2023/05/12 01:09:52;;;;;;;15.30;3.93;;;;;;;43.22;33.91;100911.50;5031899;28;20777;-83
2023/05/12 01:12:20;;;;;;;13.43;4.50;;;;;;;43.15;34.33;100906.63;5030334;28;20434;-83
2023/05/12 01:14:46;;;;;;;12.40;4.33;;;;;;;43.15;34.02;100901.94;5032227;28;20426;-83
2023/05/12 01:17:16;;;;;;;16.87;5.27;;;;;;;43.16;34.40;100898.09;5030117;28;20431;-83
2023/05/12 01:19:51;;;;;;;13.93;4.27;;;;;;;43.21;34.49;100916.16;5030671;28;20439;-83
2023/05/12 01:22:17;;;;;;;26.67;5.47;;;;;;;43.19;34.75;100911.06;5030295;28;20419;-83
2023/05/12 01:24:56;;;;;;;17.77;5.53;;;;;;;43.12;34.56;100912.78;5030591;28;20455;-83
2023/05/12 01:27:24;;;;;;;10.60;4.20;;;;;;;43.17;34.32;100901.63;5029910;28;20419;-82
2023/05/12 01:29:51;;;;;;;12.23;4.27;;;;;;;43.18;34.49;100901.28;5030637;28;20622;-83
2023/05/12 01:32:18;;;;;;;13.43;4.80;;;;;;;43.21;35.08;100902.53;5030209;28;20478;-83
2023/05/12 01:34:45;;;;;;;12.73;5.87;;;;;;;43.21;34.41;100904.44;5030525;28;20526;-83
2023/05/12 01:37:11;;;;;;;19.50;5.27;;;;;;;43.19;34.37;100896.63;5030409;28;20473;-83
2023/05/12 01:39:37;;;;;;;22.80;5.30;;;;;;;43.18;33.76;100890.34;5031225;28;20479;-83
2023/05/12 01:42:04;;;;;;;11.50;4.27;;;;;;;43.14;34.17;100896.84;5030661;28;20881;-82
2023/05/12 01:44:30;;;;;;;12.73;4.20;;;;;;;43.05;34.21;100882.53;5025063;28;20585;-83
2023/05/12 01:46:56;;;;;;;11.83;4.10;;;;;;;43.06;33.86;100890.38;5033869;28;20490;-83
2023/05/12 01:49:22;;;;;;;12.70;4.67;;;;;;;43.06;34.38;100881.38;5034498;28;20463;-83
2023/05/12 01:51:48;;;;;;;14.83;5.20;;;;;;;43.13;34.16;100884.34;5033942;28;20518;-83
2023/05/12 01:54:14;;;;;;;13.23;4.30;;;;;;;43.13;34.61;100870.69;5034358;28;20588;-83
2023/05/12 01:56:40;;;;;;;16.63;4.10;;;;;;;43.06;34.27;100875.94;5033943;28;20423;-83
2023/05/12 01:59:07;;;;;;;14.50;5.77;;;;;;;43.10;34.01;100874.13;5034288;28;20424;-83
2023/05/12 02:01:33;;;;;;;12.50;4.50;;;;;;;43.09;34.09;100875.22;5032909;28;20505;-83
2023/05/12 02:03:59;;;;;;;11.53;5.53;;;;;;;43.06;34.27;100875.94;5033619;28;20467;-83
2023/05/12 02:06:26;;;;;;;18.23;4.27;;;;;;;43.01;34.19;100876.94;5033243;28;20431;-83
2023/05/12 02:08:52;;;;;;;18.70;4.30;;;;;;;43.05;34.24;100872.41;5033814;28;20501;-83
2023/05/12 02:11:18;;;;;;;12.40;4.97;;;;;;;43.07;33.82;100864.66;5033717;28;20420;-83
2023/05/12 02:13:43;;;;;;;10.47;4.33;;;;;;;43.11;34.21;100872.97;5033666;28;20607;-83
2023/05/12 02:16:10;;;;;;;12.53;4.20;;;;;;;43.10;34.41;100874.91;5033090;28;20295;-82
2023/05/12 02:18:36;;;;;;;15.40;5.93;;;;;;;43.06;33.31;100876.72;5033895;28;20427;-83
2023/05/12 02:21:02;;;;;;;12.53;4.20;;;;;;;42.97;33.99;100877.94;5032756;28;20439;-83
2023/05/12 02:23:28;;;;;;;12.90;5.77;;;;;;;42.89;34.45;100891.34;5033621;28;20752;-82
2023/05/12 02:25:54;;;;;;;15.67;7.10;;;;;;;43.02;34.11;100884.00;5033254;28;20189;-83
2023/05/12 02:28:20;;;;;;;12.97;5.40;;;;;;;42.89;34.19;100885.09;5033832;28;20188;-82
2023/05/12 02:30:47;;;;;;;24.27;6.43;;;;;;;42.88;34.41;100875.31;5033426;28;20489;-83
2023/05/12 02:33:14;;;;;;;18.80;4.70;;;;;;;42.97;34.48;100897.03;5033505;28;20420;-83
2023/05/12 02:35:40;;;;;;;24.93;4.93;;;;;;;42.98;33.72;100907.66;5033238;28;20592;-83
2023/05/12 02:38:06;;;;;;;17.63;4.90;;;;;;;43.02;33.83;100908.56;5033418;28;20522;-82
2023/05/12 02:40:32;;;;;;;24.67;5.10;;;;;;;42.91;33.75;100883.63;5033125;28;20181;-82
2023/05/12 02:42:58;;;;;;;12.03;5.90;;;;;;;43.05;34.18;100912.56;5032888;28;20940;-83
2023/05/12 02:45:24;;;;;;;19.73;5.20;;;;;;;43.05;34.05;100890.72;5033167;28;20201;-83
2023/05/12 02:47:49;;;;;;;13.67;5.00;;;;;;;43.06;34.13;100886.84;5033418;28;20438;-83
2023/05/12 02:50:15;;;;;;;13.90;5.10;;;;;;;43.13;34.23;100897.97;5032035;28;20184;-82
2023/05/12 02:52:41;;;;;;;18.30;5.87;;;;;;;43.04;33.60;100884.47;5031509;28;20176;-83
2023/05/12 02:55:08;;;;;;;8.80;3.50;;;;;;;43.11;33.63;100894.81;5032885;28;20947;-83
2023/05/12 02:57:33;;;;;;;14.40;5.17;;;;;;;43.01;34.00;100890.59;5033071;28;20428;-83
2023/05/12 03:00:00;;;;;;;13.50;5.10;;;;;;;43.03;34.00;100904.72;5032236;28;20427;-82
2023/05/12 03:02:26;;;;;;;15.63;4.57;;;;;;;43.00;34.20;100899.13;5032695;28;20525;-83
2023/05/12 03:04:52;;;;;;;17.43;5.07;;;;;;;43.07;33.93;100902.06;5032914;28;20538;-82
2023/05/12 03:07:18;;;;;;;15.90;4.20;;;;;;;43.00;34.01;100889.00;5032844;28;20970;-82
2023/05/12 03:09:44;;;;;;;14.50;5.87;;;;;;;43.01;34.00;100889.78;5032356;28;20214;-83
2023/05/12 03:12:10;;;;;;;21.70;6.27;;;;;;;43.05;33.82;100888.78;5032871;28;20940;-83
2023/05/12 03:14:36;;;;;;;12.20;4.93;;;;;;;43.03;34.27;100901.97;5032163;28;20220;-83
2023/05/12 03:17:02;;;;;;;11.60;4.40;;;;;;;43.04;34.08;100897.31;5032865;28;20207;-83
2023/05/12 03:19:28;;;;;;;12.97;4.40;;;;;;;43.00;33.96;100896.41;5032456;28;20177;-83
2023/05/12 03:21:54;;;;;;;17.87;5.60;;;;;;;43.02;33.98;100900.38;5032118;28;20184;-84
2023/05/12 03:24:20;;;;;;;12.80;4.13;;;;;;;43.09;34.39;100891.59;5032132;28;20204;-82
2023/05/12 03:26:46;;;;;;;8.60;4.13;;;;;;;43.08;34.04;100906.41;5032043;28;20431;-83
2023/05/12 03:29:13;;;;;;;17.53;5.03;;;;;;;43.07;34.42;100904.81;5032406;28;20430;-83
2023/05/12 03:31:39;;;;;;;11.47;4.23;;;;;;;43.08;34.21;100903.66;5032517;28;20454;-82
2023/05/12 03:34:05;;;;;;;18.63;4.77;;;;;;;43.12;34.08;100907.31;5032588;28;20439;-82
2023/05/12 03:36:31;;;;;;;14.93;5.13;;;;;;;43.03;34.53;100903.88;5032139;28;20461;-82
2023/05/12 03:38:57;;;;;;;16.07;4.33;;;;;;;43.04;34.53;100910.97;5032130;28;21018;-82
2023/05/12 03:41:22;;;;;;;13.90;4.83;;;;;;;43.04;34.79;100908.22;5020557;28;20444;-82
2023/05/12 03:43:48;;;;;;;9.87;4.03;;;;;;;43.04;34.32;100910.97;5030248;28;20215;-82
2023/05/12 03:46:14;;;;;;;22.20;5.17;;;;;;;43.09;34.52;100918.91;5032284;28;20608;-82
2023/05/12 03:48:40;;;;;;;19.93;5.17;;;;;;;43.05;34.88;100926.19;5031929;28;20427;-83
2023/05/12 03:51:06;;;;;;;13.23;3.70;;;;;;;43.03;34.85;100920.25;5031554;28;20430;-83
2023/05/12 03:53:32;;;;;;;14.43;4.40;;;;;;;43.07;34.34;100921.19;5031296;28;20184;-83
2023/05/12 03:56:03;;;;;;;11.13;3.63;;;;;;;43.02;34.19;100916.75;5032033;28;20669;-82
2023/05/12 03:58:29;;;;;;;22.13;5.20;;;;;;;43.04;34.66;100913.69;5031624;28;20526;-83
2023/05/12 04:01:00;;;;;;;17.07;6.07;;;;;;;42.99;33.79;100920.16;5031239;28;20538;-83
2023/05/12 04:03:30;;;;;;;13.03;6.07;;;;;;;42.99;33.83;100922.09;5031312;28;20475;-82
2023/05/12 04:06:02;;;;;;;15.30;4.17;;;;;;;42.98;33.78;100920.47;5031524;28;20458;-82
2023/05/12 04:08:29;;;;;;;18.80;5.57;;;;;;;43.05;33.79;100923.47;5031593;28;20928;-83
2023/05/12 04:10:57;;;;;;;19.73;4.70;;;;;;;43.01;34.00;100922.53;5031318;28;20434;-83
2023/05/12 04:13:26;;;;;;;25.93;5.53;;;;;;;43.01;34.04;100917.09;5031616;28;20479;-82
2023/05/12 04:15:56;;;;;;;11.30;4.73;;;;;;;43.02;34.39;100926.88;5030883;28;20428;-83
2023/05/12 04:18:22;;;;;;;18.37;4.30;;;;;;;43.02;34.65;100926.88;5031683;28;20428;-82
2023/05/12 04:20:48;;;;;;;16.97;5.53;;;;;;;42.96;34.22;100920.00;5031212;28;20434;-83
2023/05/12 04:23:14;;;;;;;11.77;4.83;;;;;;;42.98;34.07;100925.94;5031422;28;20522;-82
2023/05/12 04:25:41;;;;;;;12.73;4.40;;;;;;;43.02;34.59;100924.94;5032503;28;20556;-82
2023/05/12 04:28:08;;;;;;;12.17;5.30;;;;;;;43.01;34.09;100922.53;5031305;28;20488;-82
2023/05/12 04:30:36;;;;;;;15.60;5.27;;;;;;;42.97;34.29;100924.31;5031076;28;20427;-83
2023/05/12 04:33:03;;;;;;;13.90;6.00;;;;;;;43.00;34.58;100913.56;5031339;28;20518;-82
2023/05/12 04:35:29;;;;;;;13.20;4.40;;;;;;;43.04;34.04;100917.22;5031114;28;20435;-83
2023/05/12 04:37:54;;;;;;;14.40;5.03;;;;;;;42.95;34.44;100913.75;5031377;28;20485;-82
2023/05/12 04:40:20;;;;;;;15.07;5.37;;;;;;;42.98;34.55;100915.84;5030074;28;21281;-83
2023/05/12 04:42:46;;;;;;;24.07;4.70;;;;;;;42.98;34.51;100921.31;5031028;28;20176;-82
2023/05/12 04:45:12;;;;;;;22.13;6.20;;;;;;;42.84;34.08;100932.50;5030710;28;20467;-82
2023/05/12 04:47:38;;;;;;;19.50;5.93;;;;;;;42.86;34.24;100938.44;5030919;28;20427;-83
2023/05/12 04:50:05;;;;;;;14.33;5.93;;;;;;;42.76;34.51;100933.41;5030836;28;20254;-83
2023/05/12 04:52:31;;;;;;;10.30;5.00;;;;;;;42.77;34.82;100943.16;5020575;28;20513;-83
2023/05/12 04:54:57;;;;;;;15.97;5.97;;;;;;;42.81;34.72;100946.84;5030501;28;20430;-83
2023/05/12 04:57:23;;;;;;;18.13;6.40;;;;;;;42.70;34.47;100939.41;5031107;28;20426;-83
2023/05/12 04:59:49;;;;;;;11.80;5.20;;;;;;;42.81;34.44;100952.28;5030118;28;20198;-83
2023/05/12 05:02:15;;;;;;;16.67;4.90;;;;;;;42.82;34.76;100964.78;5030529;28;20469;-83
2023/05/12 05:04:41;;;;;;;20.43;5.17;;;;;;;42.79;34.90;100965.47;5025594;28;20213;-83
2023/05/12 05:07:07;;;;;;;14.20;4.50;;;;;;;42.81;35.16;100967.88;5030568;28;20461;-83
2023/05/12 05:09:33;;;;;;;27.40;5.60;;;;;;;42.82;34.89;100974.91;5030554;28;20436;-82
2023/05/12 05:11:59;;;;;;;18.67;7.37;;;;;;;42.81;34.54;100976.06;5030755;28;20518;-83
2023/05/12 05:14:25;;;;;;;11.73;4.30;;;;;;;42.74;33.75;100957.50;5033767;28;20558;-83
2023/05/12 05:16:51;;;;;;;17.77;3.70;;;;;;;42.79;34.27;100975.59;5034614;28;20180;-83
2023/05/12 05:19:17;;;;;;;10.50;3.83;;;;;;;42.73;34.10;100980.47;5035015;28;20490;-82
2023/05/12 05:21:43;;;;;;;13.60;5.30;;;;;;;42.74;33.92;100986.72;5034471;28;20447;-81
2023/05/12 05:24:09;;;;;;;33.50;6.20;;;;;;;42.80;34.13;100991.63;5033950;28;20929;-81
2023/05/12 05:26:36;;;;;;;32.17;6.57;;;;;;;42.83;34.21;100999.13;5034848;28;20459;-81
2023/05/12 05:29:03;;;;;;;12.57;5.43;;;;;;;42.78;34.43;100999.31;5033760;28;20263;-81
2023/05/12 05:31:29;;;;;;;13.80;6.40;;;;;;;42.82;34.24;101004.94;5027645;28;20463;-81
2023/05/12 05:33:55;;;;;;;20.43;6.33;;;;;;;42.85;34.15;101012.44;5026675;28;20489;-79
2023/05/12 05:36:22;;;;;;;18.50;5.03;;;;;;;42.86;34.15;101020.28;5034634;28;20227;-81
2023/05/12 05:38:48;;;;;;;17.27;4.60;;;;;;;42.93;33.94;101036.91;5034096;28;20673;-82
2023/05/12 05:41:13;;;;;;;13.30;5.27;;;;;;;42.92;34.36;101046.22;5034631;28;20423;-83
2023/05/12 05:43:39;;;;;;;18.50;6.20;;;;;;;42.92;34.46;101053.63;5033227;28;20467;-81
2023/05/12 05:46:06;;;;;;;19.80;6.47;;;;;;;42.95;34.08;101058.41;5024912;28;20192;-82
2023/05/12 05:48:32;;;;;;;30.03;5.80;;;;;;;42.97;34.52;101064.34;5028852;28;20181;-84
2023/05/12 05:50:58;;;;;;;14.57;5.10;;;;;;;42.99;34.17;101066.75;5033931;28;20441;-85
2023/05/12 05:53:24;;;;;;;20.13;5.10;;;;;;;43.02;34.49;101069.59;5025618;28;20184;-81
2023/05/12 05:55:50;;;;;;;14.73;5.93;;;;;;;43.02;34.13;101066.84;5026214;28;21021;-84
2023/05/12 05:58:16;;;;;;;14.93;4.63;;;;;;;43.02;33.43;101066.84;5033480;28;20423;-81
2023/05/12 06:00:42;;;;;;;23.17;7.47;;;;;;;43.03;33.91;101079.41;5034000;28;20457;-84
2023/05/12 06:03:08;;;;;;;10.07;4.50;;;;;;;43.01;34.00;101073.44;5032915;28;20427;-81
2023/05/12 06:05:35;;;;;;;17.30;4.50;;;;;;;43.02;33.65;101085.16;5032554;28;20420;-80
2023/05/12 06:08:00;;;;;;;16.20;5.50;;;;;;;43.00;33.73;101090.19;5033425;28;20428;-82
2023/05/12 06:10:26;;;;;;;22.33;5.33;;;;;;;43.04;33.71;101091.09;5033902;28;20439;-82
2023/05/12 06:12:52;;;;;;;11.70;4.60;;;;;;;43.06;33.99;101097.00;5032671;28;20701;-85
2023/05/12 06:15:18;;;;;;;11.40;4.57;;;;;;;43.07;33.75;101096.69;5030381;28;20430;-83
2023/05/12 06:17:45;;;;;;;17.40;6.00;;;;;;;43.05;33.94;101085.31;5029802;28;20209;-83
2023/05/12 06:20:13;;;;;;;32.30;5.87;;;;;;;43.11;33.39;101110.47;5021723;28;20435;-81
2023/05/12 06:22:41;;;;;;;17.10;4.20;;;;;;;43.12;33.67;101107.38;5026087;28;20431;-82
2023/05/12 06:25:08;;;;;;;11.00;4.00;;;;;;;43.12;33.39;101109.31;5028277;28;20529;-81
2023/05/12 06:27:34;;;;;;;14.13;5.30;;;;;;;43.08;33.32;101103.72;5033279;28;20412;-82
2023/05/12 06:30:00;;;;;;;14.67;5.10;;;;;;;43.12;33.48;101109.31;5033494;28;20775;-78
2023/05/12 06:32:25;;;;;;;17.23;7.30;;;;;;;43.13;33.91;101106.25;5031874;28;20471;-82
2023/05/12 06:34:51;;;;;;;17.13;6.07;;;;;;;43.10;33.89;101112.41;5029823;28;20172;-81
2023/05/12 06:37:17;;;;;;;15.43;6.20;;;;;;;43.16;33.48;101113.78;5033142;28;20744;-84
2023/05/12 06:39:43;;;;;;;20.33;6.23;;;;;;;43.12;33.45;101110.13;5033451;28;20241;-85
2023/05/12 06:42:10;;;;;;;22.43;6.10;;;;;;;43.14;33.52;101117.97;5033107;28;20295;-84
2023/05/12 06:44:36;;;;;;;14.53;4.93;;;;;;;43.16;33.51;101124.69;5032257;28;20262;-84
2023/05/12 06:47:03;;;;;;;20.53;6.10;;;;;;;43.10;33.29;101106.13;5031052;28;20448;-85
2023/05/12 06:49:30;;;;;;;21.47;6.63;;;;;;;43.14;33.45;101117.97;5032223;28;20430;-83
2023/05/12 06:51:56;;;;;;;20.27;6.57;;;;;;;43.09;33.81;101116.22;5032719;28;20920;-83
2023/05/12 06:54:22;;;;;;;15.53;4.83;;;;;;;43.20;33.63;101135.72;5032271;28;20443;-83
2023/05/12 06:56:48;;;;;;;9.57;4.00;;;;;;;43.22;33.43;101136.22;5032140;28;20531;-82
2023/05/12 06:59:14;;;;;;;23.77;5.53;;;;;;;43.20;33.60;101133.00;5027267;28;21030;-82
2023/05/12 07:01:41;;;;;;;25.70;5.80;;;;;;;43.22;33.90;101138.94;5032567;28;20956;-81
2023/05/12 07:04:07;;;;;;;13.03;4.13;;;;;;;43.24;33.92;101136.66;5032521;28;20212;-81
2023/05/12 07:06:33;;;;;;;15.90;5.33;;;;;;;43.29;33.64;101146.56;5034209;28;20430;-82
2023/05/12 07:08:59;;;;;;;21.30;5.77;;;;;;;43.31;34.06;101156.00;5033977;28;20443;-81
2023/05/12 07:11:25;;;;;;;16.67;4.83;;;;;;;43.34;33.48;101149.91;5033581;28;20502;-81
2023/05/12 07:13:51;;;;;;;12.37;4.37;;;;;;;43.33;33.74;101142.00;5032428;28;20842;-81
2023/05/12 07:16:18;;;;;;;15.07;5.73;;;;;;;43.39;33.42;101151.63;5033901;28;20200;-81
2023/05/12 07:18:45;;;;;;;21.17;7.30;;;;;;;43.36;33.32;101164.00;5032728;28;20443;-81
2023/05/12 07:21:12;;;;;;;14.67;5.30;;;;;;;43.35;33.54;101167.88;5032519;28;20451;-81
2023/05/12 07:23:38;;;;;;;15.03;7.60;;;;;;;43.30;33.51;101154.41;5032422;28;20502;-80
2023/05/12 07:26:05;;;;;;;19.57;9.57;;;;;;;43.35;33.40;101158.88;5033571;28;20439;-81
2023/05/12 07:28:34;;;;;;;17.47;4.50;;;;;;;43.34;33.32;101157.25;5032715;28;20794;-81
2023/05/12 07:31:05;;;;;;;9.80;3.93;;;;;;;43.37;33.71;101162.06;5032544;28;20451;-81
2023/05/12 07:33:32;;;;;;;13.33;3.67;;;;;;;43.39;33.53;101157.88;5032023;28;20416;-81
2023/05/12 07:35:58;;;;;;;13.47;3.80;;;;;;;43.46;33.40;101162.78;5031448;28;20430;-81
2023/05/12 07:38:24;;;;;;;12.93;4.50;;;;;;;43.42;33.75;101173.59;5033626;28;20423;-82
2023/05/12 07:40:50;;;;;;;11.77;4.03;;;;;;;43.48;33.22;101171.47;5032146;28;20477;-81
2023/05/12 07:43:16;;;;;;;10.00;3.57;;;;;;;43.46;33.58;101168.25;5031954;28;20438;-81
2023/05/12 07:45:43;;;;;;;14.67;5.90;;;;;;;43.50;33.45;101176.56;5019025;28;20643;-84
2023/05/12 07:48:12;;;;;;;15.17;5.20;;;;;;;43.48;33.39;101176.91;5031964;28;20970;-83
2023/05/12 07:50:38;;;;;;;24.47;5.50;;;;;;;43.46;33.84;101179.16;5019752;28;20434;-82
2023/05/12 07:53:07;;;;;;;14.10;4.20;;;;;;;43.60;33.45;101187.88;5031930;28;20423;-82
2023/05/12 07:55:33;;;;;;;13.73;3.57;;;;;;;43.61;33.30;101203.13;5032357;28;20423;-83
2023/05/12 07:57:59;;;;;;;21.03;5.13;;;;;;;43.59;33.03;101199.16;5030737;28;20489;-83
2023/05/12 08:00:26;;;;;;;8.43;3.33;;;;;;;43.64;32.80;101216.09;5026966;28;20574;-82
2023/05/12 08:02:52;;;;;;;15.33;4.00;;;;;;;43.64;32.95;101218.81;5026214;28;20427;-82
2023/05/12 08:05:18;;;;;;;11.77;4.00;;;;;;;43.66;33.38;101213.84;5031872;28;21054;-82
2023/05/12 08:07:45;;;;;;;18.90;4.73;;;;;;;43.66;33.23;101218.50;5031437;28;20443;-82
2023/05/12 08:10:12;;;;;;;16.77;4.20;;;;;;;43.65;33.49;101203.25;5031641;28;20486;-82
2023/05/12 08:12:39;;;;;;;11.60;3.83;;;;;;;43.70;32.88;101219.41;5030938;28;20432;-82
2023/05/12 08:15:06;;;;;;;11.17;3.57;;;;;;;43.78;32.98;101223.22;5031716;28;20423;-83
2023/05/12 08:17:32;;;;;;;12.23;3.30;;;;;;;43.72;32.78;101203.50;5030797;28;20434;-82
2023/05/12 08:19:58;;;;;;;12.20;4.40;;;;;;;43.72;33.49;101220.69;5031731;28;20431;-82
2023/05/12 08:22:24;;;;;;;12.43;4.33;;;;;;;43.70;33.61;101222.16;5031074;28;20795;-82
2023/05/12 08:24:51;;;;;;;10.03;4.33;;;;;;;43.73;33.39;101207.81;5032821;28;20262;-81
2023/05/12 08:27:18;;;;;;;12.67;3.80;;;;;;;43.77;33.92;101218.84;5031055;28;20511;-81
2023/05/12 08:29:43;;;;;;;16.30;5.33;;;;;;;43.77;33.92;101206.00;5031427;28;21025;-82
2023/05/12 08:32:10;;;;;;;12.53;4.17;;;;;;;43.76;33.82;101209.06;5031038;28;20471;-83
2023/05/12 08:34:36;;;;;;;10.23;3.97;;;;;;;43.80;33.59;101205.34;5031340;28;20181;-83
2023/05/12 08:37:02;;;;;;;12.77;4.90;;;;;;;43.78;33.58;101204.91;5031034;28;20450;-82
2023/05/12 08:39:32;;;;;;;14.77;3.53;;;;;;;43.82;33.42;101197.59;5031345;28;20427;-82
2023/05/12 08:42:08;;;;;;;13.43;7.50;;;;;;;43.82;33.41;101218.66;5016633;28;20432;-83
2023/05/12 08:44:38;;;;;;;10.20;5.03;;;;;;;43.77;33.07;101206.00;5022384;28;20466;-82
2023/05/12 08:47:05;;;;;;;11.43;3.70;;;;;;;43.73;33.38;101213.28;5031892;28;20420;-81
2023/05/12 08:49:34;;;;;;;9.23;4.33;;;;;;;43.75;33.70;101208.28;5030677;28;20443;-80
2023/05/12 08:52:04;;;;;;;11.40;4.27;;;;;;;43.80;33.48;101210.81;5030994;28;20419;-81
2023/05/12 08:54:32;;;;;;;12.40;3.77;;;;;;;43.79;33.36;101211.97;5031153;28;20797;-80
2023/05/12 08:57:00;;;;;;;12.63;4.13;;;;;;;43.82;33.60;101219.47;5028958;28;20435;-79
2023/05/12 08:59:26;;;;;;;10.10;4.07;;;;;;;43.78;33.78;101202.16;5031251;28;20509;-80
2023/05/12 09:01:53;;;;;;;16.97;5.07;;;;;;;43.80;33.73;101208.09;5031647;28;20429;-80
2023/05/12 09:04:19;;;;;;;27.93;4.30;;;;;;;43.77;33.59;101216.13;5030953;28;20458;-80
2023/05/12 09:06:45;;;;;;;10.43;4.17;;;;;;;43.82;33.42;101218.66;5030607;28;20423;-80
2023/05/12 09:09:14;;;;;;;13.20;4.03;;;;;;;43.83;33.08;101215.63;5032174;28;20459;-80
2023/05/12 09:11:41;;;;;;;8.47;3.10;;;;;;;43.86;33.60;101217.66;5032139;28;20416;-80
2023/05/12 09:14:29;;;;;;;16.93;4.57;;;;;;;43.87;33.33;101221.97;5030242;28;20847;-80
2023/05/12 09:17:03;;;;;;;12.47;4.13;;;;;;;43.82;33.28;101226.88;5030676;28;20420;-82
2023/05/12 09:19:30;;;;;;;11.83;5.13;;;;;;;43.84;32.59;101219.16;5032032;28;20412;-82
2023/05/12 09:21:57;;;;;;;10.37;3.13;;;;;;;43.86;32.83;101220.41;5030781;28;20522;-83
2023/05/12 09:24:36;;;;;;;12.53;5.97;;;;;;;43.71;32.98;101218.31;5030291;28;20463;-80
2023/05/12 09:27:03;;;;;;;17.80;3.80;;;;;;;43.91;33.09;101217.44;5030308;28;20924;-80
2023/05/12 09:29:31;;;;;;;15.73;4.30;;;;;;;43.84;32.91;101200.81;5030510;28;20427;-79
2023/05/12 09:32:01;;;;;;;12.43;3.87;;;;;;;43.85;32.72;101213.34;5030663;28;20486;-80
2023/05/12 09:34:37;;;;;;;10.60;4.07;;;;;;;43.82;32.90;101218.66;5027344;28;20436;-80
2023/05/12 09:37:05;;;;;;;25.50;9.67;;;;;;;43.83;32.59;101210.16;5026635;28;20947;-80
2023/05/12 09:39:32;;;;;;;14.00;6.60;;;;;;;43.83;32.62;101220.25;5030610;28;20435;-81
2023/05/12 09:41:57;;;;;;;12.23;4.37;;;;;;;43.95;32.77;101226.56;5030413;28;20975;-80
2023/05/12 09:44:24;;;;;;;12.00;3.93;;;;;;;43.87;32.51;101208.31;5030538;28;20501;-80
2023/05/12 09:46:51;;;;;;;12.17;5.10;;;;;;;43.82;32.27;101205.00;5030276;28;20940;-80
2023/05/12 09:49:19;;;;;;;24.40;8.90;;;;;;;43.78;32.28;101213.09;5031970;28;20439;-80
2023/05/12 09:51:46;;;;;;;10.70;5.33;;;;;;;43.90;32.05;101213.13;5030254;28;20419;-80
2023/05/12 09:54:12;;;;;;;15.47;5.53;;;;;;;43.81;32.31;101203.41;5028875;28;20458;-80
2023/05/12 09:56:40;;;;;;;13.60;5.77;;;;;;;43.82;32.52;101207.75;5025761;28;20474;-82
2023/05/12 09:59:09;;;;;;;12.00;5.00;;;;;;;43.87;32.44;101205.59;5022078;28;20442;-83
2023/05/12 10:01:36;;;;;;;12.43;4.40;;;;;;;43.78;31.90;101204.06;5033722;28;20431;-82
2023/05/12 10:04:06;;;;;;;16.53;3.93;;;;;;;43.82;32.37;101199.53;5033803;28;20463;-80
2023/05/12 10:06:41;;;;;;;11.10;3.70;;;;;;;43.83;32.12;101203.88;5034089;28;20826;-83
2023/05/12 10:09:13;;;;;;;10.57;4.10;;;;;;;43.79;32.49;101197.50;5033733;28;20492;-81
2023/05/12 10:11:40;;;;;;;16.40;5.47;;;;;;;43.73;32.59;101185.97;5021842;28;20443;-81
2023/05/12 10:14:08;;;;;;;8.40;4.27;;;;;;;43.63;32.95;101192.66;5033408;28;20463;-81
2023/05/12 10:16:35;;;;;;;13.90;3.63;;;;;;;43.83;32.03;101201.97;5033688;28;20462;-80
2023/05/12 10:19:03;;;;;;;10.33;3.37;;;;;;;43.68;33.07;101199.84;5033344;28;20452;-79
2023/05/12 10:21:30;;;;;;;11.87;3.80;;;;;;;43.71;32.49;101185.50;5035173;28;20443;-77
2023/05/12 10:23:57;;;;;;;18.23;4.23;;;;;;;43.76;33.03;101182.53;5033503;28;20868;-80
2023/05/12 10:26:24;;;;;;;15.00;4.57;;;;;;;43.83;32.31;101182.81;5033707;28;20442;-80
2023/05/12 10:28:52;;;;;;;16.70;5.27;;;;;;;43.84;32.88;101175.41;5033440;28;20433;-79
2023/05/12 10:31:18;;;;;;;11.70;4.30;;;;;;;43.92;32.89;101186.22;5033728;28;20542;-80
2023/05/12 10:33:56;;;;;;;18.03;5.50;;;;;;;43.88;32.76;101171.66;5032883;28;20443;-80
2023/05/12 10:36:22;;;;;;;12.43;4.23;;;;;;;43.83;33.24;101192.94;5033470;28;20974;-80
2023/05/12 10:38:51;;;;;;;11.10;4.70;;;;;;;43.73;32.99;101185.97;5032671;28;20431;-80
2023/05/12 10:41:29;;;;;;;13.33;4.03;;;;;;;43.88;33.10;101171.66;5033237;28;20538;-79
2023/05/12 10:43:55;;;;;;;10.70;3.27;;;;;;;43.82;33.03;101169.47;5033205;28;20466;-80
2023/05/12 10:46:23;;;;;;;12.47;4.57;;;;;;;43.96;33.02;101165.28;5033740;28;20501;-80
2023/05/12 10:48:56;;;;;;;12.10;3.20;;;;;;;44.03;32.41;101156.53;5030038;28;20523;-81
2023/05/12 10:51:25;;;;;;;11.63;4.00;;;;;;;44.02;32.92;101132.25;5026795;28;20482;-81
2023/05/12 10:53:55;;;;;;;11.13;3.97;;;;;;;44.01;32.67;101138.84;5022707;28;20439;-81
2023/05/12 10:56:27;;;;;;;8.30;2.70;;;;;;;44.03;32.45;101142.06;5033022;28;20419;-82
2023/05/12 10:59:16;;;;;;;9.73;3.93;;;;;;;44.08;32.73;101144.56;5028775;28;21028;-81
2023/05/12 11:02:04;;;;;;;8.63;2.97;;;;;;;44.04;32.26;101149.91;5032642;28;20459;-80
2023/05/12 11:04:46;;;;;;;15.60;4.33;;;;;;;44.15;31.94;101139.31;5032734;28;21093;-80
2023/05/12 11:07:14;;;;;;;12.43;4.07;;;;;;;44.12;32.32;101140.78;5030486;28;20435;-81
2023/05/12 11:09:45;;;;;;;11.70;3.70;;;;;;;44.04;32.42;101122.56;5032727;28;20419;-80
2023/05/12 11:12:12;;;;;;;20.13;7.67;;;;;;;44.15;31.97;101134.63;5031968;28;20436;-80
2023/05/12 11:14:40;;;;;;;9.83;3.40;;;;;;;44.13;31.88;101127.91;5032205;28;20467;-82
2023/05/12 11:17:06;;;;;;;10.00;4.67;;;;;;;44.14;32.17;101130.31;5032876;28;20553;-82